Time;durP1;ratioP1;P1;durP2;ratioP2;P2;SDS_P1;SDS_P2;PMS_P1;PMS_P2;Temp;Humidity;BMP_temperature;BMP_pressure;BME280_temperature;BME280_humidity;BME280_pressure;Samples;Min_cycle;Max_cycle;Signal;HPM_P1;HPM_P2
2023/08/23 00:00:12;;;;;;;5.38;3.67;;;22.30;94.90;;;;;;5093418;28;20028;-49
2023/08/23 00:02:57;;;;;;;4.82;3.83;;;22.20;95.00;;;;;;5087493;28;20492;-54
2023/08/23 00:05:43;;;;;;;5.00;3.83;;;22.30;95.00;;;;;;5085234;28;20028;-48
2023/08/23 00:08:29;;;;;;;5.30;3.63;;;22.30;95.20;;;;;;5083059;28;20059;-50
2023/08/23 00:11:15;;;;;;;6.45;3.53;;;22.20;95.20;;;;;;5092865;28;20060;-53
2023/08/23 00:14:01;;;;;;;5.10;3.53;;;22.10;95.20;;;;;;5093394;28;20032;-53
2023/08/23 00:16:47;;;;;;;9.75;3.97;;;22.20;95.40;;;;;;5093374;28;20025;-50
2023/08/23 00:19:33;;;;;;;6.15;3.92;;;22.10;95.60;;;;;;5092341;28;20069;-53
2023/08/23 00:22:19;;;;;;;10.77;4.47;;;22.10;95.70;;;;;;5093715;28;20065;-51
2023/08/23 00:25:05;;;;;;;4.78;3.78;;;22.10;95.70;;;;;;5093867;28;20082;-47
2023/08/23 00:27:51;;;;;;;8.55;3.80;;;22.10;95.60;;;;;;5093810;28;20481;-51
2023/08/23 00:30:37;;;;;;;7.20;3.80;;;22.10;95.80;;;;;;5093238;28;20428;-50
2023/08/23 00:33:23;;;;;;;10.20;3.88;;;22.00;95.90;;;;;;5093439;28;20439;-49
2023/08/23 00:36:09;;;;;;;7.05;3.70;;;22.00;95.80;;;;;;5092725;28;20020;-47
2023/08/23 00:38:55;;;;;;;8.50;3.80;;;22.00;95.70;;;;;;5092955;28;20032;-52
2023/08/23 00:41:43;;;;;;;5.45;3.45;;;22.00;95.60;;;;;;5092899;28;20028;-48
2023/08/23 00:44:29;;;;;;;7.30;3.55;;;22.00;95.20;;;;;;5093267;28;20103;-52
2023/08/23 00:47:14;;;;;;;10.48;3.80;;;22.00;95.50;;;;;;5092050;28;20028;-54
2023/08/23 00:50:01;;;;;;;7.45;3.53;;;21.90;95.60;;;;;;5077823;28;20032;-49
2023/08/23 00:52:48;;;;;;;7.85;4.30;;;21.80;95.70;;;;;;5092797;28;20028;-52
2023/08/23 00:55:35;;;;;;;4.50;3.22;;;21.80;95.70;;;;;;5076980;28;20031;-49
2023/08/23 00:58:22;;;;;;;8.57;4.38;;;21.70;95.90;;;;;;5073818;28;20017;-48
2023/08/23 01:01:08;;;;;;;7.60;3.70;;;21.70;96.00;;;;;;5073494;28;20032;-51
2023/08/23 01:03:57;;;;;;;8.02;3.70;;;21.70;96.40;;;;;;5084574;28;20032;-49
2023/08/23 01:06:49;;;;;;;9.65;4.22;;;21.70;96.50;;;;;;5092989;28;20028;-51
2023/08/23 01:10:03;;;;;;;7.53;3.53;;;21.70;96.60;;;;;;5093085;28;20764;-49
2023/08/23 01:13:04;;;;;;;5.63;3.45;;;21.70;96.70;;;;;;5092229;28;20065;-53
2023/08/23 01:15:54;;;;;;;4.45;3.72;;;21.70;96.80;;;;;;5092691;28;20054;-52
2023/08/23 01:18:41;;;;;;;6.63;3.80;;;21.70;96.90;;;;;;5080624;28;20518;-47
2023/08/23 01:21:37;;;;;;;9.98;3.88;;;21.70;97.10;;;;;;5080920;28;20028;-54
2023/08/23 01:24:24;;;;;;;9.02;3.63;;;21.60;97.30;;;;;;5082076;28;20055;-47
2023/08/23 01:27:10;;;;;;;6.78;3.47;;;21.60;97.40;;;;;;5083304;28;20028;-54
2023/08/23 01:29:56;;;;;;;6.97;4.03;;;21.60;97.30;;;;;;5083030;28;20028;-53
2023/08/23 01:33:01;;;;;;;7.05;3.85;;;21.50;97.30;;;;;;5088519;28;20032;-50
2023/08/23 01:36:11;;;;;;;8.35;3.75;;;21.50;97.30;;;;;;5084895;28;20081;-51
2023/08/23 01:38:58;;;;;;;7.45;3.40;;;21.50;97.30;;;;;;5082067;28;20748;-51
2023/08/23 01:41:44;;;;;;;9.50;4.20;;;21.40;97.30;;;;;;5083719;28;20768;-49
2023/08/23 01:44:30;;;;;;;7.60;3.90;;;21.50;97.40;;;;;;5083849;28;20039;-49
2023/08/23 01:47:17;;;;;;;9.05;4.15;;;21.50;97.40;;;;;;5081107;28;20027;-52
2023/08/23 01:50:04;;;;;;;6.28;3.67;;;21.50;97.30;;;;;;5079931;28;20035;-48
2023/08/23 01:52:50;;;;;;;6.80;3.58;;;21.40;97.00;;;;;;5080778;28;20027;-54
2023/08/23 01:55:36;;;;;;;8.20;3.80;;;21.30;97.00;;;;;;5082249;28;20021;-54
2023/08/23 01:58:24;;;;;;;5.43;3.55;;;21.20;97.00;;;;;;5081373;28;20048;-48
2023/08/23 02:01:10;;;;;;;7.28;3.70;;;21.10;97.30;;;;;;5083138;28;20012;-54
2023/08/23 02:03:55;;;;;;;6.00;3.50;;;21.10;97.50;;;;;;5081270;28;20108;-47
2023/08/23 02:06:43;;;;;;;7.85;3.70;;;21.20;97.40;;;;;;5081117;28;20111;-52
2023/08/23 02:09:31;;;;;;;8.95;3.55;;;21.20;97.30;;;;;;5082293;28;20421;-49
2023/08/23 02:12:17;;;;;;;6.13;3.90;;;21.10;97.30;;;;;;5080439;28;20025;-51
2023/08/23 02:15:03;;;;;;;7.95;3.97;;;21.00;97.30;;;;;;5079708;28;20016;-51
2023/08/23 02:17:52;;;;;;;9.32;4.82;;;21.00;97.30;;;;;;5080556;28;20081;-51
2023/08/23 02:20:38;;;;;;;8.13;4.97;;;20.90;97.40;;;;;;5080472;28;20032;-51
2023/08/23 02:23:25;;;;;;;8.70;4.10;;;20.80;97.60;;;;;;5082613;28;20547;-51
2023/08/23 02:26:11;;;;;;;4.40;3.63;;;20.70;97.90;;;;;;5064985;28;20574;-51
2023/08/23 02:28:57;;;;;;;7.72;3.95;;;20.70;98.20;;;;;;5081840;28;20093;-49
2023/08/23 02:31:43;;;;;;;6.40;3.80;;;20.70;98.20;;;;;;5082441;28;20041;-49
2023/08/23 02:34:30;;;;;;;10.00;4.28;;;20.70;98.10;;;;;;5082750;28;20044;-47
2023/08/23 02:37:17;;;;;;;9.73;4.45;;;20.70;98.20;;;;;;5079698;28;20020;-48
2023/08/23 02:40:03;;;;;;;7.10;4.03;;;20.70;98.20;;;;;;5072583;28;20027;-46
2023/08/23 02:42:49;;;;;;;6.88;3.95;;;20.70;98.10;;;;;;5056260;28;20089;-45
2023/08/23 02:45:42;;;;;;;7.22;4.20;;;20.70;98.10;;;;;;5071699;28;20063;-46
2023/08/23 02:48:29;;;;;;;5.85;3.70;;;20.70;98.30;;;;;;5071482;28;20117;-47
2023/08/23 02:51:15;;;;;;;8.90;4.20;;;20.70;98.50;;;;;;5071866;28;20064;-49
2023/08/23 02:54:01;;;;;;;6.80;4.00;;;20.70;98.50;;;;;;5072078;28;20554;-51
2023/08/23 02:56:47;;;;;;;8.55;4.72;;;20.80;98.70;;;;;;5071034;28;20024;-53
2023/08/23 02:59:32;;;;;;;4.15;3.65;;;20.80;98.80;;;;;;5073119;28;20017;-51
2023/08/23 03:02:19;;;;;;;5.10;3.40;;;20.80;99.10;;;;;;5071938;28;20438;-53
2023/08/23 03:05:06;;;;;;;5.15;3.92;;;20.70;99.40;;;;;;5071520;28;20025;-52
2023/08/23 03:07:52;;;;;;;5.25;3.88;;;20.70;99.80;;;;;;5071834;28;20029;-51
2023/08/23 03:10:39;;;;;;;6.93;3.58;;;20.70;99.90;;;;;;5070956;28;20035;-49
2023/08/23 03:13:24;;;;;;;9.88;3.80;;;20.70;99.90;;;;;;5071775;28;20036;-50
2023/08/23 03:16:10;;;;;;;4.43;3.55;;;20.70;99.90;;;;;;5070649;28;20108;-53
2023/08/23 03:18:56;;;;;;;8.48;4.45;;;20.60;99.90;;;;;;5075840;28;20029;-52
2023/08/23 03:21:42;;;;;;;8.15;3.92;;;20.60;99.90;;;;;;5074914;28;20025;-56
2023/08/23 03:24:28;;;;;;;9.45;4.30;;;20.40;99.90;;;;;;5074714;28;20400;-53
2023/08/23 03:27:14;;;;;;;7.40;4.88;;;20.40;99.90;;;;;;5069991;28;20093;-51
2023/08/23 03:30:00;;;;;;;10.32;4.55;;;20.40;99.90;;;;;;5094935;28;20097;-52
2023/08/23 03:32:46;;;;;;;8.15;4.32;;;20.40;99.90;;;;;;5095386;28;20024;-49
2023/08/23 03:35:33;;;;;;;6.20;4.72;;;20.40;99.90;;;;;;5095386;28;20485;-50
2023/08/23 03:38:19;;;;;;;6.13;4.15;;;20.40;99.90;;;;;;5094053;28;20028;-50
2023/08/23 03:41:12;;;;;;;7.53;4.28;;;20.40;99.90;;;;;;5094073;28;20017;-54
2023/08/23 03:43:58;;;;;;;5.82;4.28;;;20.30;99.90;;;;;;5095042;28;20035;-55
2023/08/23 03:46:44;;;;;;;5.88;4.22;;;20.20;99.90;;;;;;5093485;28;20035;-51
2023/08/23 03:49:30;;;;;;;6.20;4.03;;;20.30;99.90;;;;;;5094209;28;20028;-52
2023/08/23 03:52:16;;;;;;;7.82;4.68;;;20.20;99.90;;;;;;5080068;28;20039;-48
2023/08/23 03:55:02;;;;;;;7.47;5.00;;;20.30;99.90;;;;;;5093946;28;20427;-54
2023/08/23 03:57:50;;;;;;;7.32;4.53;;;20.30;99.90;;;;;;5093787;28;20063;-51
2023/08/23 04:00:36;;;;;;;8.30;4.60;;;20.30;99.90;;;;;;5093852;28;20077;-52
2023/08/23 04:03:22;;;;;;;10.90;4.97;;;20.20;99.90;;;;;;5078725;28;20035;-51
2023/08/23 04:06:08;;;;;;;9.95;5.13;;;20.00;99.90;;;;;;5078404;28;20471;-52
2023/08/23 04:08:54;;;;;;;6.85;4.70;;;19.90;99.90;;;;;;5094432;28;20032;-49
2023/08/23 04:11:40;;;;;;;11.25;4.75;;;19.80;99.90;;;;;;5093743;28;20115;-55
2023/08/23 04:14:26;;;;;;;9.00;4.82;;;19.90;99.90;;;;;;5093729;28;20435;-54
2023/08/23 04:17:12;;;;;;;9.95;4.60;;;19.80;99.90;;;;;;5093331;28;20080;-56
2023/08/23 04:19:58;;;;;;;6.72;4.47;;;19.80;99.90;;;;;;5093626;28;20032;-52
2023/08/23 04:22:44;;;;;;;5.93;4.10;;;19.90;99.90;;;;;;5093366;28;20032;-55
2023/08/23 04:25:30;;;;;;;10.48;4.95;;;19.90;99.90;;;;;;5093497;28;20032;-54
2023/08/23 04:28:16;;;;;;;7.78;4.60;;;19.90;99.90;;;;;;5092167;28;20115;-55
2023/08/23 04:31:02;;;;;;;7.55;4.88;;;19.60;99.90;;;;;;5092204;28;20028;-51
2023/08/23 04:33:48;;;;;;;9.98;6.38;;;19.70;99.90;;;;;;5093013;28;20176;-50
2023/08/23 04:36:34;;;;;;;7.85;6.00;;;19.60;99.90;;;;;;5092566;28;20036;-53
2023/08/23 04:39:20;;;;;;;9.13;5.68;;;19.60;99.90;;;;;;5094368;28;20055;-54
2023/08/23 04:42:06;;;;;;;16.55;4.90;;;19.70;99.90;;;;;;5093975;28;20030;-53
2023/08/23 04:44:52;;;;;;;14.82;5.80;;;19.80;99.90;;;;;;5078973;28;20062;-55
2023/08/23 04:47:38;;;;;;;8.13;5.40;;;19.80;99.90;;;;;;5093734;28;20032;-50
2023/08/23 04:50:24;;;;;;;7.38;4.75;;;19.70;99.90;;;;;;5078827;28;20024;-53
2023/08/23 04:53:10;;;;;;;5.80;4.28;;;19.70;99.90;;;;;;5092382;28;20051;-55
2023/08/23 04:55:59;;;;;;;6.57;4.70;;;19.60;99.90;;;;;;5092816;28;20025;-55
2023/08/23 04:58:45;;;;;;;7.90;4.78;;;19.60;99.90;;;;;;5093345;28;20028;-54
2023/08/23 05:01:31;;;;;;;9.13;5.38;;;19.60;99.90;;;;;;5092555;28;20028;-54
2023/08/23 05:04:18;;;;;;;9.57;5.78;;;19.60;99.90;;;;;;5093636;28;20094;-53
2023/08/23 05:07:04;;;;;;;7.72;4.88;;;19.60;99.90;;;;;;5093464;28;20114;-49
2023/08/23 05:09:50;;;;;;;7.80;5.50;;;19.60;99.90;;;;;;5092098;28;20078;-55
2023/08/23 05:12:36;;;;;;;8.90;5.75;;;19.70;99.90;;;;;;5093597;28;20062;-51
2023/08/23 05:15:22;;;;;;;7.00;4.72;;;19.80;99.90;;;;;;5093674;28;20025;-53
2023/08/23 05:18:08;;;;;;;39.55;27.98;;;19.80;99.90;;;;;;5092644;28;20036;-54
2023/08/23 05:20:57;;;;;;;25.67;16.20;;;20.00;99.90;;;;;;5089909;28;20585;-50
2023/08/23 05:23:43;;;;;;;13.80;7.82;;;20.00;99.90;;;;;;5084809;28;20024;-55
2023/08/23 05:26:29;;;;;;;10.90;6.18;;;20.00;99.90;;;;;;5076061;28;20119;-51
2023/08/23 05:29:15;;;;;;;10.90;6.07;;;19.90;99.90;;;;;;5091823;28;20404;-52
2023/08/23 05:32:01;;;;;;;10.55;5.93;;;19.90;99.90;;;;;;5090586;28;20630;-51
2023/08/23 05:34:47;;;;;;;8.10;5.32;;;20.00;99.90;;;;;;5091856;28;20050;-52
2023/08/23 05:37:33;;;;;;;7.60;5.72;;;20.00;99.90;;;;;;5090756;28;20047;-52
2023/08/23 05:40:19;;;;;;;8.43;6.28;;;20.10;99.90;;;;;;5092150;28;20031;-53
2023/08/23 05:43:05;;;;;;;9.52;5.30;;;20.00;99.90;;;;;;5092018;28;20039;-53
2023/08/23 05:45:53;;;;;;;8.80;5.50;;;19.90;99.90;;;;;;5091796;28;20125;-54
2023/08/23 05:48:39;;;;;;;7.88;5.32;;;19.90;99.90;;;;;;5077011;28;20028;-52
2023/08/23 05:51:25;;;;;;;6.00;4.90;;;20.00;99.90;;;;;;5076781;28;20094;-51
2023/08/23 05:54:11;;;;;;;8.80;5.75;;;20.00;99.90;;;;;;5091826;28;20109;-49
2023/08/23 05:56:59;;;;;;;11.80;5.57;;;20.00;99.90;;;;;;5092021;28;20552;-46
2023/08/23 05:59:45;;;;;;;12.05;5.82;;;20.10;99.90;;;;;;5078202;28;20063;-50
2023/08/23 06:02:31;;;;;;;7.78;5.93;;;20.10;99.90;;;;;;5091688;28;20027;-49
2023/08/23 06:05:18;;;;;;;13.35;5.90;;;20.20;99.90;;;;;;5073437;28;20077;-49
2023/08/23 06:08:04;;;;;;;14.52;5.82;;;20.30;99.90;;;;;;5090977;28;20062;-46
2023/08/23 06:10:50;;;;;;;11.13;5.72;;;20.40;99.90;;;;;;5085602;28;20024;-47
2023/08/23 06:13:36;;;;;;;11.98;6.05;;;20.40;99.90;;;;;;5091746;28;20050;-47
2023/08/23 06:16:22;;;;;;;14.30;6.18;;;20.40;99.90;;;;;;5090497;28;20438;-48
2023/08/23 06:19:08;;;;;;;9.15;5.63;;;20.30;99.90;;;;;;5091569;28;20028;-49
2023/08/23 06:21:54;;;;;;;12.85;5.97;;;20.40;99.90;;;;;;5077731;28;20405;-50
2023/08/23 06:24:39;;;;;;;10.15;5.35;;;20.50;99.90;;;;;;5091043;28;20024;-49
2023/08/23 06:27:25;;;;;;;11.70;5.32;;;20.60;99.90;;;;;;5090863;28;20085;-50
2023/08/23 06:30:15;;;;;;;9.63;6.43;;;20.80;99.90;;;;;;5085716;28;20085;-53
2023/08/23 06:33:01;;;;;;;12.40;6.45;;;20.70;99.90;;;;;;5085453;28;20033;-52
2023/08/23 06:35:47;;;;;;;12.32;6.43;;;20.70;99.90;;;;;;5091062;28;20523;-55
2023/08/23 06:38:33;;;;;;;10.07;5.57;;;20.80;99.90;;;;;;5062726;28;20047;-52
2023/08/23 06:41:19;;;;;;;10.35;5.40;;;21.00;99.90;;;;;;5090809;28;20024;-54
2023/08/23 06:44:05;;;;;;;7.93;5.20;;;21.00;99.90;;;;;;5090740;28;20032;-45
2023/08/23 06:46:51;;;;;;;10.52;5.60;;;21.10;99.90;;;;;;5089855;28;20484;-46
2023/08/23 06:49:37;;;;;;;7.30;5.57;;;21.20;99.90;;;;;;5091781;28;20031;-52
2023/08/23 06:52:23;;;;;;;12.52;6.43;;;21.20;99.90;;;;;;5090836;28;20020;-56
2023/08/23 06:55:09;;;;;;;8.60;6.07;;;21.30;99.90;;;;;;5091029;28;20032;-53
2023/08/23 06:57:55;;;;;;;6.63;5.50;;;21.40;99.90;;;;;;5090770;28;20035;-51
2023/08/23 07:00:42;;;;;;;9.73;5.22;;;21.40;99.90;;;;;;5091266;28;20090;-56
2023/08/23 07:03:28;;;;;;;8.05;4.88;;;21.50;99.90;;;;;;5090662;28;20044;-50
2023/08/23 07:06:15;;;;;;;10.75;5.07;;;21.60;99.90;;;;;;5074994;28;20025;-53
2023/08/23 07:09:01;;;;;;;8.23;5.63;;;21.70;99.90;;;;;;5090889;28;20082;-53
2023/08/23 07:11:47;;;;;;;12.85;6.22;;;21.80;99.90;;;;;;5090503;28;20403;-54
2023/08/23 07:14:33;;;;;;;13.45;6.10;;;21.90;99.90;;;;;;5079857;28;20032;-51
2023/08/23 07:17:19;;;;;;;11.88;5.45;;;21.90;99.90;;;;;;5086159;28;20025;-50
2023/08/23 07:20:06;;;;;;;12.02;6.07;;;21.90;99.90;;;;;;5061399;28;20034;-53
2023/08/23 07:22:52;;;;;;;9.07;6.28;;;21.80;99.90;;;;;;5090667;28;20516;-55
2023/08/23 07:25:38;;;;;;;12.38;5.32;;;21.80;99.90;;;;;;5090908;28;20040;-54
2023/08/23 07:28:27;;;;;;;8.10;4.85;;;22.10;99.90;;;;;;5090402;28;20024;-53
2023/08/23 07:31:13;;;;;;;8.38;5.78;;;22.10;99.90;;;;;;5086944;28;20032;-54
2023/08/23 07:33:59;;;;;;;9.40;5.38;;;22.20;99.90;;;;;;5096966;28;20476;-54
2023/08/23 07:36:45;;;;;;;7.75;5.55;;;22.30;99.90;;;;;;5072018;28;20031;-53
2023/08/23 07:39:31;;;;;;;10.50;5.45;;;22.40;99.90;;;;;;5070387;28;20027;-52
2023/08/23 07:42:17;;;;;;;9.57;5.50;;;22.40;99.70;;;;;;5062278;28;20024;-50
2023/08/23 07:45:03;;;;;;;13.43;5.85;;;22.50;99.60;;;;;;5072087;28;20074;-51
2023/08/23 07:47:49;;;;;;;11.65;5.97;;;22.50;99.40;;;;;;5087138;28;20032;-53
2023/08/23 07:50:35;;;;;;;11.52;6.10;;;22.60;98.80;;;;;;5088111;28;20488;-53
2023/08/23 07:53:22;;;;;;;7.78;4.63;;;22.70;98.80;;;;;;5089515;28;20521;-55
2023/08/23 07:56:10;;;;;;;9.10;5.13;;;22.80;98.60;;;;;;5089436;28;20437;-53
2023/08/23 07:58:56;;;;;;;7.22;5.35;;;22.90;98.30;;;;;;5090353;28;20025;-53
2023/08/23 08:01:42;;;;;;;6.93;5.32;;;23.00;98.20;;;;;;5090971;28;20016;-53
2023/08/23 08:04:29;;;;;;;9.07;5.50;;;23.10;97.70;;;;;;5095443;28;20040;-52
2023/08/23 08:07:16;;;;;;;10.27;5.40;;;23.10;97.80;;;;;;5069815;28;20366;-48
2023/08/23 08:10:02;;;;;;;9.93;5.80;;;23.30;97.60;;;;;;5082546;28;20068;-49
2023/08/23 08:12:48;;;;;;;9.75;5.55;;;23.40;97.30;;;;;;5086143;28;20032;-52
2023/08/23 08:15:34;;;;;;;7.28;4.80;;;23.40;97.10;;;;;;5081242;28;20104;-48
2023/08/23 08:18:19;;;;;;;14.95;6.18;;;23.50;97.30;;;;;;5076482;28;20044;-50
2023/08/23 08:21:06;;;;;;;10.73;5.30;;;23.60;96.80;;;;;;5084803;28;20020;-50
2023/08/23 08:23:52;;;;;;;8.70;5.68;;;23.60;96.80;;;;;;5070919;28;20029;-52
2023/08/23 08:26:38;;;;;;;9.98;5.72;;;23.60;96.50;;;;;;5070648;28;20031;-50
2023/08/23 08:29:24;;;;;;;8.30;5.57;;;23.70;96.40;;;;;;5094033;28;20468;-49
2023/08/23 08:32:10;;;;;;;9.98;5.38;;;23.70;96.40;;;;;;5086497;28;20039;-52
2023/08/23 08:34:56;;;;;;;8.30;5.28;;;23.80;96.30;;;;;;5093116;28;20032;-50
2023/08/23 08:37:42;;;;;;;8.55;5.22;;;23.80;96.00;;;;;;5090120;28;20035;-48
2023/08/23 08:40:29;;;;;;;7.95;5.15;;;23.80;96.10;;;;;;5074164;28;20051;-51
2023/08/23 08:43:17;;;;;;;7.72;5.15;;;23.90;96.10;;;;;;5093321;28;20059;-52
2023/08/23 08:46:06;;;;;;;9.02;5.25;;;24.10;95.30;;;;;;5089967;28;20158;-55
2023/08/23 08:48:52;;;;;;;9.05;5.82;;;24.10;95.50;;;;;;5092175;28;20024;-52
2023/08/23 08:51:41;;;;;;;12.75;6.10;;;24.20;95.20;;;;;;5092229;28;20031;-50
2023/08/23 08:54:28;;;;;;;11.88;5.60;;;24.20;94.40;;;;;;5084582;28;20027;-49
2023/08/23 08:57:15;;;;;;;9.82;5.70;;;24.10;95.10;;;;;;5090989;28;20373;-47
2023/08/23 09:00:03;;;;;;;10.13;5.45;;;24.00;94.80;;;;;;5099252;27;20070;-53
2023/08/23 09:02:52;;;;;;;7.68;5.13;;;24.10;94.70;;;;;;5077447;28;20095;-46
2023/08/23 09:05:39;;;;;;;11.35;5.72;;;24.20;94.90;;;;;;5092944;28;20024;-46
2023/08/23 09:08:26;;;;;;;10.48;8.30;;;24.30;94.50;;;;;;5092441;28;20063;-46
2023/08/23 09:11:12;;;;;;;9.07;6.70;;;24.30;94.30;;;;;;5091676;28;20031;-51
2023/08/23 09:13:58;;;;;;;12.55;5.70;;;24.50;94.00;;;;;;5092187;28;20075;-46
2023/08/23 09:16:46;;;;;;;14.40;6.35;;;24.60;93.70;;;;;;5091878;28;20032;-51
2023/08/23 09:19:39;;;;;;;6.43;5.43;;;24.70;93.00;;;;;;5092563;28;20028;-45
2023/08/23 09:22:25;;;;;;;13.48;8.07;;;24.70;93.30;;;;;;5092782;28;20024;-48
2023/08/23 09:25:11;;;;;;;9.45;7.00;;;24.80;93.00;;;;;;5089773;28;20090;-50
2023/08/23 09:27:57;;;;;;;9.23;6.88;;;24.70;93.00;;;;;;5083197;28;20137;-49
2023/08/23 09:30:48;;;;;;;11.13;7.32;;;24.90;93.00;;;;;;5080955;28;20738;-49
2023/08/23 09:33:35;;;;;;;9.27;7.88;;;24.90;93.40;;;;;;5081386;28;20464;-49
2023/08/23 09:36:40;;;;;;;10.77;6.90;;;24.80;93.00;;;;;;5066642;28;20031;-45
2023/08/23 09:39:25;;;;;;;10.65;6.18;;;24.80;93.30;;;;;;5081259;28;20024;-50
2023/08/23 09:42:14;;;;;;;10.55;7.07;;;24.90;93.20;;;;;;5082240;28;20024;-47
2023/08/23 09:45:02;;;;;;;10.32;6.55;;;25.10;93.00;;;;;;5065917;28;20054;-47
2023/08/23 09:47:53;;;;;;;13.18;7.28;;;25.30;93.20;;;;;;5064467;28;20028;-50
2023/08/23 09:50:39;;;;;;;9.02;7.43;;;25.50;93.00;;;;;;5079048;28;20029;-55
2023/08/23 09:53:32;;;;;;;9.45;6.70;;;25.70;92.90;;;;;;5074003;28;20033;-55
2023/08/23 09:56:18;;;;;;;11.23;7.03;;;25.70;92.60;;;;;;5091188;28;20043;-52
2023/08/23 09:59:04;;;;;;;14.38;7.05;;;25.80;93.10;;;;;;5057742;28;20016;-54
2023/08/23 10:01:51;;;;;;;9.55;7.38;;;25.80;92.30;;;;;;5073294;28;20051;-53
2023/08/23 10:04:40;;;;;;;7.60;6.60;;;25.70;92.00;;;;;;5072776;28;20086;-57
2023/08/23 10:07:26;;;;;;;9.63;5.95;;;25.50;92.50;;;;;;5072937;28;20063;-53
2023/08/23 10:10:12;;;;;;;8.68;6.22;;;25.50;92.10;;;;;;5071257;28;20409;-52
2023/08/23 10:13:04;;;;;;;10.20;6.35;;;25.80;91.80;;;;;;5072254;28;20451;-51
2023/08/23 10:15:52;;;;;;;11.98;6.85;;;26.10;91.20;;;;;;5071056;28;20453;-55
2023/08/23 10:18:38;;;;;;;16.15;7.47;;;26.20;91.10;;;;;;5070712;28;20033;-53
2023/08/23 10:21:28;;;;;;;8.85;6.63;;;25.90;91.80;;;;;;5071989;28;20025;-54
2023/08/23 10:24:14;;;;;;;9.90;6.40;;;25.70;91.70;;;;;;5070735;28;20081;-53
2023/08/23 10:27:07;;;;;;;12.43;6.20;;;25.60;91.80;;;;;;5054648;28;20059;-56
2023/08/23 10:29:53;;;;;;;9.35;6.10;;;25.60;92.50;;;;;;5070845;28;20032;-56
2023/08/23 10:32:44;;;;;;;7.28;5.65;;;25.80;91.90;;;;;;5071951;28;20071;-55
2023/08/23 10:35:34;;;;;;;9.30;5.40;;;25.80;91.90;;;;;;5056506;28;20020;-50
2023/08/23 10:38:21;;;;;;;7.85;5.18;;;25.90;91.80;;;;;;5071255;28;20016;-55
2023/08/23 10:41:18;;;;;;;7.07;5.10;;;25.90;92.10;;;;;;5072341;28;20021;-56
2023/08/23 10:44:14;;;;;;;5.40;4.40;;;25.90;91.10;;;;;;5072511;28;20497;-55
2023/08/23 10:47:07;;;;;;;8.23;4.93;;;26.10;90.60;;;;;;5071071;28;20025;-57
2023/08/23 10:49:54;;;;;;;7.10;4.82;;;26.40;90.70;;;;;;5071735;28;20033;-55
2023/08/23 10:52:40;;;;;;;8.70;5.22;;;26.30;91.00;;;;;;5071728;28;20162;-53
2023/08/23 10:55:26;;;;;;;7.32;4.78;;;26.30;91.30;;;;;;5070744;28;20035;-54
2023/08/23 10:58:13;;;;;;;7.22;4.35;;;26.30;91.00;;;;;;5071236;28;20071;-54
2023/08/23 11:00:59;;;;;;;8.27;4.93;;;26.40;91.30;;;;;;5072134;28;20098;-55
2023/08/23 11:03:46;;;;;;;8.00;4.32;;;26.20;90.80;;;;;;5070373;28;20032;-50
2023/08/23 11:06:33;;;;;;;10.70;5.10;;;26.00;90.80;;;;;;5071992;28;20047;-55
2023/08/23 11:09:19;;;;;;;8.20;4.45;;;25.80;90.50;;;;;;5072771;28;20024;-53
2023/08/23 11:12:05;;;;;;;6.85;4.43;;;26.00;90.50;;;;;;5073700;28;20485;-53
2023/08/23 11:14:51;;;;;;;5.63;4.00;;;26.20;90.60;;;;;;5071718;28;20028;-55
2023/08/23 11:17:38;;;;;;;8.63;4.70;;;26.40;90.50;;;;;;5056538;28;20025;-55
2023/08/23 11:20:24;;;;;;;8.02;4.10;;;26.60;90.20;;;;;;5071936;28;20640;-55
2023/08/23 11:23:10;;;;;;;6.78;4.10;;;26.60;90.00;;;;;;5071541;28;20033;-55
2023/08/23 11:25:57;;;;;;;8.40;4.45;;;26.50;90.00;;;;;;5057150;28;20024;-53
2023/08/23 11:28:43;;;;;;;7.43;4.93;;;26.50;90.50;;;;;;5071756;28;20028;-54
2023/08/23 11:31:31;;;;;;;7.35;4.72;;;26.70;90.20;;;;;;5071631;28;20041;-54
2023/08/23 11:34:17;;;;;;;4.95;4.00;;;26.70;90.00;;;;;;5072127;28;20067;-55
2023/08/23 11:37:08;;;;;;;7.43;4.18;;;26.60;89.80;;;;;;5070947;28;20024;-55
2023/08/23 11:39:57;;;;;;;6.40;3.75;;;26.50;87.50;;;;;;5076078;28;20066;-56
2023/08/23 11:42:44;;;;;;;5.85;3.58;;;26.60;86.30;;;;;;5074972;28;20481;-53
2023/08/23 11:45:38;;;;;;;6.80;4.05;;;26.70;85.40;;;;;;5060140;28;20033;-54
2023/08/23 11:48:24;;;;;;;7.03;3.75;;;26.20;86.90;;;;;;5060590;28;20474;-57
2023/08/23 11:51:10;;;;;;;3.80;3.45;;;26.30;87.00;;;;;;5094266;28;20024;-54
2023/08/23 11:53:56;;;;;;;8.25;3.92;;;26.70;86.10;;;;;;5073910;28;20036;-52
2023/08/23 11:56:44;;;;;;;5.75;3.67;;;26.70;84.50;;;;;;5079152;28;20103;-52
2023/08/23 11:59:30;;;;;;;6.63;4.38;;;26.90;85.60;;;;;;5079977;28;20047;-54
2023/08/23 12:02:16;;;;;;;9.05;4.50;;;26.80;86.40;;;;;;5094994;28;20024;-55
2023/08/23 12:05:02;;;;;;;4.80;3.80;;;26.70;85.60;;;;;;5095012;28;20031;-55
2023/08/23 12:07:48;;;;;;;8.27;4.03;;;26.80;85.50;;;;;;5093914;28;20500;-54
2023/08/23 12:10:34;;;;;;;6.32;3.58;;;26.90;85.40;;;;;;5095085;28;20119;-50
2023/08/23 12:13:20;;;;;;;7.80;4.35;;;27.10;84.00;;;;;;5095138;28;20492;-50
2023/08/23 12:16:07;;;;;;;4.13;3.40;;;27.10;84.20;;;;;;5093778;28;20488;-54
2023/08/23 12:18:53;;;;;;;7.70;4.22;;;27.30;84.40;;;;;;5095463;28;20028;-51
2023/08/23 12:21:39;;;;;;;5.03;3.70;;;27.30;85.20;;;;;;5094828;28;20020;-49
2023/08/23 12:24:25;;;;;;;7.07;3.88;;;27.30;83.60;;;;;;5078271;28;20492;-47
2023/08/23 12:27:11;;;;;;;6.85;3.80;;;27.50;84.30;;;;;;5073875;28;20400;-48
2023/08/23 12:29:57;;;;;;;4.75;3.80;;;27.30;84.60;;;;;;5074183;28;20060;-49
2023/08/23 12:32:43;;;;;;;7.57;3.83;;;27.40;86.20;;;;;;5074419;28;20025;-50
2023/08/23 12:35:29;;;;;;;5.53;4.32;;;27.50;86.30;;;;;;5075620;28;20028;-46
2023/08/23 12:38:15;;;;;;;6.90;4.10;;;27.30;85.20;;;;;;5074474;28;20547;-47
2023/08/23 12:41:01;;;;;;;6.22;4.07;;;27.20;86.60;;;;;;5059098;28;20102;-51
2023/08/23 12:43:47;;;;;;;7.60;4.28;;;27.30;86.60;;;;;;5074081;28;20029;-50
2023/08/23 12:46:33;;;;;;;4.20;3.67;;;27.70;85.40;;;;;;5086117;28;20412;-48
2023/08/23 12:49:19;;;;;;;6.43;4.10;;;27.70;84.80;;;;;;5073507;28;20492;-54
2023/08/23 12:52:06;;;;;;;5.82;3.75;;;27.50;85.50;;;;;;5093494;28;20055;-53
2023/08/23 12:54:52;;;;;;;8.63;4.05;;;27.20;86.40;;;;;;5094130;28;20024;-47
2023/08/23 12:57:38;;;;;;;7.57;3.85;;;27.20;87.00;;;;;;5094375;28;20074;-45
2023/08/23 13:00:24;;;;;;;8.77;4.35;;;27.30;86.70;;;;;;5093593;28;20062;-49
2023/08/23 13:03:10;;;;;;;10.98;4.05;;;27.50;85.40;;;;;;5092951;28;20029;-47
2023/08/23 13:05:56;;;;;;;5.57;3.95;;;27.70;85.50;;;;;;5093239;28;20117;-51
2023/08/23 13:08:42;;;;;;;6.20;4.25;;;27.60;86.20;;;;;;5077849;28;20029;-47
2023/08/23 13:11:28;;;;;;;6.20;4.00;;;27.60;86.50;;;;;;5094149;28;20046;-49
2023/08/23 13:14:14;;;;;;;4.85;4.07;;;27.50;86.40;;;;;;5093714;28;20028;-51
2023/08/23 13:17:00;;;;;;;9.35;4.50;;;27.60;86.30;;;;;;5092669;28;20028;-51
2023/08/23 13:19:46;;;;;;;5.65;3.88;;;27.60;85.80;;;;;;5094051;28;20103;-45
2023/08/23 13:22:32;;;;;;;4.95;3.90;;;27.80;85.80;;;;;;5078903;28;20028;-49
2023/08/23 13:25:18;;;;;;;7.57;4.60;;;28.10;85.70;;;;;;5093745;28;20020;-54
2023/08/23 13:28:04;;;;;;;6.60;4.22;;;28.40;86.30;;;;;;5093158;28;20020;-51
2023/08/23 13:30:50;;;;;;;5.40;3.85;;;28.60;84.10;;;;;;5093003;28;20039;-53
2023/08/23 13:33:36;;;;;;;6.57;4.00;;;28.50;83.70;;;;;;5093028;28;20031;-48
2023/08/23 13:36:22;;;;;;;6.15;3.90;;;28.50;84.20;;;;;;5091945;28;20024;-51
2023/08/23 13:39:08;;;;;;;5.65;4.07;;;28.40;83.30;;;;;;5093798;28;20024;-53
2023/08/23 13:41:54;;;;;;;5.30;3.53;;;28.40;82.90;;;;;;5093333;28;20112;-54
2023/08/23 13:44:40;;;;;;;7.25;4.20;;;28.40;82.50;;;;;;5092421;28;20055;-52
2023/08/23 13:47:26;;;;;;;4.32;3.40;;;28.50;82.80;;;;;;5092683;28;20435;-48
2023/08/23 13:50:12;;;;;;;5.35;3.95;;;28.50;81.00;;;;;;5093186;28;20016;-51
2023/08/23 13:52:58;;;;;;;3.97;3.58;;;28.20;81.80;;;;;;5093411;28;20035;-52
2023/08/23 13:55:47;;;;;;;6.80;3.35;;;28.40;81.30;;;;;;5077795;28;20054;-46
2023/08/23 13:58:33;;;;;;;5.07;3.70;;;28.70;80.10;;;;;;5079367;28;20030;-53
2023/08/23 14:01:19;;;;;;;5.32;3.97;;;28.60;81.00;;;;;;5090388;28;20444;-53
2023/08/23 14:04:05;;;;;;;6.55;4.38;;;28.40;81.50;;;;;;5072548;28;20029;-52
2023/08/23 14:06:51;;;;;;;5.13;3.97;;;28.60;82.30;;;;;;5057155;28;20094;-47
2023/08/23 14:09:37;;;;;;;7.38;4.22;;;28.60;82.20;;;;;;5071586;28;20081;-49
2023/08/23 14:12:23;;;;;;;4.63;3.50;;;28.80;82.00;;;;;;5071209;28;20032;-48
2023/08/23 14:15:09;;;;;;;6.45;3.80;;;29.30;80.90;;;;;;5071195;28;20041;-46
2023/08/23 14:17:55;;;;;;;5.00;3.78;;;29.50;79.60;;;;;;5071441;28;20021;-45
2023/08/23 14:20:41;;;;;;;5.65;3.53;;;29.70;79.50;;;;;;5070878;28;20053;-44
2023/08/23 14:23:27;;;;;;;7.22;3.50;;;29.40;78.00;;;;;;5077363;28;20040;-44
2023/08/23 14:26:13;;;;;;;4.60;3.28;;;29.20;77.60;;;;;;5071543;28;20028;-48